createdAt,value
2022-08-19T00:01:52.721Z,45.84
2022-08-19T00:04:29.031Z,45.38
2022-08-19T00:06:59.814Z,45.34
2022-08-19T00:09:31.540Z,46.01
2022-08-19T00:12:03.194Z,45.90
2022-08-19T00:14:35.910Z,45.95
2022-08-19T00:17:08.120Z,46.02
2022-08-19T00:19:39.735Z,45.90
2022-08-19T00:22:10.339Z,45.99
2022-08-19T00:24:42.651Z,45.59
2022-08-19T00:27:26.025Z,45.75
2022-08-19T00:30:00.425Z,46.07
2022-08-19T00:32:30.808Z,45.64
2022-08-19T00:35:02.529Z,45.71
2022-08-19T00:37:34.681Z,46.26
2022-08-19T00:40:08.143Z,46.43
2022-08-19T00:42:39.059Z,45.84
2022-08-19T00:45:18.102Z,45.80
2022-08-19T00:47:50.137Z,46.29
2022-08-19T00:50:24.917Z,46.36
2022-08-19T00:52:56.797Z,46.14
2022-08-19T00:55:32.546Z,45.86
2022-08-19T00:58:08.297Z,45.82
2022-08-19T01:00:42.406Z,46.31
2022-08-19T01:03:19.481Z,45.87
2022-08-19T01:05:53.156Z,46.25
2022-08-19T01:08:25.519Z,46.14
2022-08-19T01:11:02.787Z,46.59
2022-08-19T01:13:49.249Z,46.12
2022-08-19T01:16:28.080Z,46.27
2022-08-19T01:18:59.956Z,46.12
2022-08-19T01:21:37.636Z,46.28
2022-08-19T01:24:10.572Z,46.54
2022-08-19T01:26:46.655Z,46.20
2022-08-19T01:29:18.657Z,46.04
2022-08-19T01:31:53.533Z,46.53
2022-08-19T01:34:25.037Z,46.08
2022-08-19T01:36:55.373Z,46.42
2022-08-19T01:39:31.001Z,46.08
2022-08-19T01:42:05.134Z,46.55
2022-08-19T01:44:36.979Z,46.15
2022-08-19T01:47:08.518Z,46.54
2022-08-19T01:49:40.061Z,46.29
2022-08-19T01:52:11.463Z,46.61
2022-08-19T01:54:44.620Z,46.20
2022-08-19T01:57:18.103Z,46.26
2022-08-19T01:59:50.551Z,46.29
2022-08-19T02:02:21.286Z,46.38
2022-08-19T02:04:52.040Z,46.86
2022-08-19T02:07:24.011Z,46.51
2022-08-19T02:09:56.955Z,46.47
2022-08-19T02:12:27.969Z,46.76
2022-08-19T02:14:59.102Z,46.46
2022-08-19T02:17:30.238Z,46.29
2022-08-19T02:20:01.170Z,46.45
2022-08-19T02:22:32.003Z,46.97
2022-08-19T02:25:06.329Z,46.77
2022-08-19T02:27:37.247Z,46.99
2022-08-19T02:30:14.291Z,46.29
2022-08-19T02:32:45.217Z,46.72
2022-08-19T02:35:18.060Z,47.01
2022-08-19T02:38:05.523Z,46.78
2022-08-19T02:40:38.556Z,47.11
2022-08-19T02:43:11.631Z,46.36
2022-08-19T02:45:43.349Z,46.39
2022-08-19T02:48:21.742Z,46.46
2022-08-19T02:50:56.745Z,46.62
2022-08-19T02:53:30.138Z,46.54
2022-08-19T02:56:02.770Z,46.58
2022-08-19T02:58:33.841Z,46.46
2022-08-19T03:01:04.603Z,46.43
2022-08-19T03:03:36.160Z,46.54
2022-08-19T03:06:19.244Z,46.84
2022-08-19T03:08:51.591Z,46.41
2022-08-19T03:11:27.566Z,46.51
2022-08-19T03:13:59.017Z,47.18
2022-08-19T03:16:34.209Z,46.91
2022-08-19T03:19:06.279Z,46.74
2022-08-19T03:21:39.135Z,47.08
2022-08-19T03:24:13.031Z,46.63
2022-08-19T03:26:59.085Z,47.20
2022-08-19T03:29:32.712Z,46.79
2022-08-19T03:32:05.055Z,46.88
2022-08-19T03:34:39.384Z,47.11
2022-08-19T03:37:13.902Z,46.75
2022-08-19T03:39:45.672Z,47.02
2022-08-19T03:42:32.951Z,46.79
2022-08-19T03:45:11.802Z,46.96
2022-08-19T03:47:42.703Z,46.91
2022-08-19T03:50:14.145Z,47.11
2022-08-19T03:52:46.929Z,47.43
2022-08-19T03:55:17.555Z,46.68
2022-08-19T03:57:50.251Z,47.20
2022-08-19T04:00:22.008Z,47.00
2022-08-19T04:02:58.559Z,47.23
2022-08-19T04:05:32.744Z,46.88
2022-08-19T04:08:02.672Z,47.12
2022-08-19T04:10:32.802Z,47.05
2022-08-19T04:13:06.793Z,46.89
2022-08-19T04:15:41.825Z,47.33
2022-08-19T04:18:12.987Z,47.36
2022-08-19T04:20:45.742Z,47.08
2022-08-19T04:23:17.831Z,47.33
2022-08-19T04:25:49.100Z,46.93
2022-08-19T04:28:21.330Z,47.28
2022-08-19T04:30:56.136Z,47.51
2022-08-19T04:33:29.179Z,47.29
2022-08-19T04:36:01.818Z,47.32
2022-08-19T04:38:32.461Z,47.50
2022-08-19T04:41:19.551Z,47.61
2022-08-19T04:43:53.012Z,47.33
2022-08-19T04:46:39.416Z,47.51
2022-08-19T04:49:13.677Z,47.13
2022-08-19T04:51:47.196Z,46.93
2022-08-19T04:54:33.797Z,47.00
2022-08-19T04:57:11.609Z,47.53
2022-08-19T04:59:45.909Z,47.23
2022-08-19T05:02:17.124Z,47.23
2022-08-19T05:04:47.696Z,47.14
2022-08-19T05:07:18.902Z,47.14
2022-08-19T05:09:57.606Z,47.03
2022-08-19T05:12:30.727Z,47.26
2022-08-19T05:15:03.462Z,47.47
2022-08-19T05:17:38.321Z,47.07
2022-08-19T05:20:28.848Z,46.96
2022-08-19T05:22:59.699Z,47.00
2022-08-19T05:25:30.500Z,47.52
2022-08-19T05:28:01.163Z,46.97
2022-08-19T05:30:46.757Z,47.20
2022-08-19T05:33:17.941Z,47.18
2022-08-19T05:35:50.000Z,47.13
2022-08-19T05:38:21.983Z,46.97
2022-08-19T05:40:52.482Z,47.21
2022-08-19T05:43:23.222Z,47.46
2022-08-19T05:45:55.652Z,47.41
2022-08-19T05:48:25.946Z,47.03
2022-08-19T05:50:56.619Z,47.47
2022-08-19T05:53:27.480Z,47.02
2022-08-19T05:55:57.628Z,47.37
2022-08-19T05:58:29.687Z,47.04
2022-08-19T06:01:06.971Z,47.25
2022-08-19T06:03:38.861Z,47.04
2022-08-19T06:06:12.140Z,46.95
2022-08-19T06:08:44.512Z,47.34
2022-08-19T06:11:23.847Z,47.07
2022-08-19T06:14:00.230Z,46.98
2022-08-19T06:16:36.570Z,47.68
2022-08-19T06:19:13.186Z,47.37
2022-08-19T06:21:45.937Z,46.76
2022-08-19T06:24:24.838Z,46.97
2022-08-19T06:27:00.972Z,47.27
2022-08-19T06:29:34.004Z,47.46
2022-08-19T06:32:08.292Z,47.29
2022-08-19T06:34:39.859Z,47.21
2022-08-19T06:37:10.530Z,47.35
2022-08-19T06:39:44.597Z,47.28
2022-08-19T06:42:17.930Z,46.98
2022-08-19T06:44:53.536Z,46.96
2022-08-19T06:47:29.082Z,47.17
2022-08-19T06:50:05.678Z,47.11
2022-08-19T06:52:38.753Z,46.70
2022-08-19T06:55:10.847Z,46.40
2022-08-19T06:57:41.388Z,47.03
2022-08-19T07:00:14.654Z,46.36
2022-08-19T07:02:53.373Z,46.51
2022-08-19T07:05:26.269Z,46.87
2022-08-19T07:08:01.614Z,46.23
2022-08-19T07:10:36.646Z,46.78
2022-08-19T07:13:07.633Z,46.39
2022-08-19T07:15:41.061Z,46.54
2022-08-19T07:18:14.110Z,46.06
2022-08-19T07:20:45.047Z,46.12
2022-08-19T07:23:16.859Z,46.06
2022-08-19T07:25:52.757Z,46.09
2022-08-19T07:28:24.912Z,46.00
2022-08-19T07:30:56.345Z,45.71
2022-08-19T07:33:29.142Z,45.91
2022-08-19T07:36:00.240Z,45.58
2022-08-19T07:38:31.559Z,45.78
2022-08-19T07:41:02.723Z,45.56
2022-08-19T07:43:34.931Z,46.07
2022-08-19T07:46:06.602Z,45.44
2022-08-19T07:48:39.584Z,45.56
2022-08-19T07:51:14.376Z,45.37
2022-08-19T07:54:00.019Z,45.89
2022-08-19T07:56:31.309Z,45.71
2022-08-19T07:59:02.383Z,45.28
2022-08-19T08:01:33.889Z,45.75
2022-08-19T08:04:31.778Z,45.75
2022-08-19T08:07:20.175Z,45.86
2022-08-19T08:09:50.808Z,45.38
2022-08-19T08:12:34.192Z,45.32
2022-08-19T08:15:12.607Z,45.33
2022-08-19T08:17:49.637Z,45.42
2022-08-19T08:20:25.848Z,44.88
2022-08-19T08:23:12.846Z,45.08
2022-08-19T08:25:43.911Z,45.42
2022-08-19T08:28:20.666Z,45.69
2022-08-19T08:30:55.907Z,45.33
2022-08-19T08:33:34.559Z,45.66
2022-08-19T08:36:09.475Z,45.03
2022-08-19T08:38:41.718Z,45.62
2022-08-19T08:41:28.118Z,44.94
2022-08-19T08:44:00.307Z,45.33
2022-08-19T08:46:42.539Z,45.25
2022-08-19T08:49:34.279Z,44.87
2022-08-19T08:52:13.825Z,45.43
2022-08-19T08:54:55.339Z,44.83
2022-08-19T08:57:40.755Z,45.25
2022-08-19T09:00:18.669Z,44.61
2022-08-19T09:02:50.440Z,45.15
2022-08-19T09:05:26.034Z,45.11
2022-08-19T09:08:08.289Z,45.10
2022-08-19T09:10:46.931Z,44.79
2022-08-19T09:13:37.317Z,44.65
2022-08-19T09:16:14.816Z,44.31
2022-08-19T09:18:50.447Z,44.38
2022-08-19T09:21:25.712Z,44.31
2022-08-19T09:24:04.319Z,44.71
2022-08-19T09:26:47.765Z,44.19
2022-08-19T09:29:24.420Z,44.75
2022-08-19T09:31:55.895Z,44.31
2022-08-19T09:34:27.213Z,44.90
2022-08-19T09:36:59.827Z,44.43
2022-08-19T09:39:36.076Z,44.32
2022-08-19T09:42:16.696Z,44.71
2022-08-19T09:44:51.122Z,44.36
2022-08-19T09:47:22.589Z,44.77
2022-08-19T09:49:55.010Z,44.20
2022-08-19T09:52:26.064Z,44.03
2022-08-19T09:55:07.161Z,44.39
2022-08-19T09:57:39.474Z,43.87
2022-08-19T10:00:13.751Z,44.57
2022-08-19T10:02:45.774Z,44.20
2022-08-19T10:05:33.016Z,44.18
2022-08-19T10:08:04.488Z,44.00
2022-08-19T10:10:46.979Z,43.76
2022-08-19T10:13:21.970Z,44.34
2022-08-19T10:15:54.531Z,43.63
2022-08-19T10:18:28.898Z,44.01
2022-08-19T10:21:11.868Z,44.14
2022-08-19T10:23:47.596Z,43.85
2022-08-19T10:26:26.549Z,43.42
2022-08-19T10:28:59.724Z,43.70
2022-08-19T10:32:01.116Z,43.44
2022-08-19T10:34:27.817Z,43.26
2022-08-19T10:37:02.052Z,43.51
2022-08-19T10:39:43.066Z,43.45
2022-08-19T10:42:17.945Z,43.42
2022-08-19T10:44:50.047Z,43.60
2022-08-19T10:47:24.949Z,43.09
2022-08-19T10:50:15.141Z,43.17
2022-08-19T10:52:50.525Z,43.47
2022-08-19T10:55:41.509Z,43.58
2022-08-19T10:58:26.911Z,43.42
2022-08-19T11:01:01.686Z,43.13
2022-08-19T11:03:32.846Z,43.49
2022-08-19T11:06:04.984Z,43.30
2022-08-19T11:08:36.380Z,42.87
2022-08-19T11:11:09.554Z,42.94
2022-08-19T11:13:44.286Z,42.85
2022-08-19T11:16:17.628Z,43.40
2022-08-19T11:18:52.346Z,43.40
2022-08-19T11:21:28.490Z,42.76
2022-08-19T11:24:04.433Z,43.35
2022-08-19T11:26:37.050Z,42.92
2022-08-19T11:29:13.154Z,42.83
2022-08-19T11:31:46.735Z,42.88
2022-08-19T11:34:21.556Z,43.24
2022-08-19T11:36:54.694Z,43.32
2022-08-19T11:39:26.397Z,43.17
2022-08-19T11:41:57.141Z,42.90
2022-08-19T11:44:36.823Z,42.98
2022-08-19T11:47:08.885Z,43.38
2022-08-19T11:49:40.001Z,43.63
2022-08-19T11:52:10.660Z,43.15
2022-08-19T11:54:41.367Z,43.50
2022-08-19T11:57:12.672Z,43.77
2022-08-19T11:59:45.380Z,43.67
2022-08-19T12:02:15.598Z,43.52
2022-08-19T12:04:45.880Z,43.22
2022-08-19T12:07:16.800Z,43.58
2022-08-19T12:09:48.653Z,43.35
2022-08-19T12:12:19.883Z,43.12
2022-08-19T12:14:58.152Z,43.26
2022-08-19T12:17:29.919Z,43.71
2022-08-19T12:20:00.948Z,43.00
2022-08-19T12:22:31.967Z,43.29
2022-08-19T12:25:02.698Z,43.14
2022-08-19T12:27:40.856Z,43.25
2022-08-19T12:30:17.580Z,43.11
2022-08-19T12:32:48.715Z,43.21
2022-08-19T12:35:22.143Z,43.45
2022-08-19T12:37:55.754Z,43.67
2022-08-19T12:40:28.140Z,43.71
2022-08-19T12:42:58.633Z,43.76
2022-08-19T12:45:32.367Z,43.67
2022-08-19T12:48:32.921Z,43.25
2022-08-19T12:50:57.031Z,43.26
2022-08-19T12:53:31.061Z,43.33
2022-08-19T12:56:02.468Z,42.93
2022-08-19T12:58:36.631Z,43.41
2022-08-19T13:01:15.453Z,43.46
2022-08-19T13:03:49.993Z,42.96
2022-08-19T13:06:21.946Z,43.35
2022-08-19T13:08:55.501Z,43.22
2022-08-19T13:11:33.777Z,43.30
2022-08-19T13:14:06.458Z,43.66
2022-08-19T13:16:40.149Z,43.67
2022-08-19T13:19:10.085Z,43.47
2022-08-19T13:21:41.382Z,43.31
2022-08-19T13:24:14.113Z,43.49
2022-08-19T13:26:44.202Z,43.04
2022-08-19T13:29:38.270Z,42.88
2022-08-19T13:32:32.179Z,42.98
2022-08-19T13:35:03.035Z,43.12
2022-08-19T13:37:46.889Z,42.93
2022-08-19T13:40:23.277Z,43.50
2022-08-19T13:42:58.150Z,43.51
2022-08-19T13:45:32.730Z,43.20
2022-08-19T13:48:10.136Z,42.86
2022-08-19T13:50:45.201Z,43.45
2022-08-19T13:53:16.825Z,43.56
2022-08-19T13:55:48.463Z,42.94
2022-08-19T13:58:19.118Z,43.64
2022-08-19T14:00:51.382Z,42.96
2022-08-19T14:03:25.139Z,43.57
2022-08-19T14:05:55.898Z,43.03
2022-08-19T14:08:26.927Z,43.23
2022-08-19T14:10:58.365Z,43.01
2022-08-19T14:13:29.253Z,43.59
2022-08-19T14:16:00.368Z,42.96
2022-08-19T14:18:32.734Z,43.43
2022-08-19T14:21:03.085Z,43.29
2022-08-19T14:23:34.074Z,43.37
2022-08-19T14:26:10.799Z,43.18
2022-08-19T14:28:43.274Z,43.22
2022-08-19T14:31:14.035Z,43.16
2022-08-19T14:33:46.997Z,43.62
2022-08-19T14:36:19.152Z,43.57
2022-08-19T14:38:50.286Z,43.15
2022-08-19T14:41:25.212Z,43.35
2022-08-19T14:43:58.421Z,43.59
2022-08-19T14:46:31.513Z,43.61
2022-08-19T14:49:09.596Z,43.64
2022-08-19T14:51:40.004Z,43.77
2022-08-19T14:54:10.650Z,43.45
2022-08-19T14:56:44.870Z,43.66
2022-08-19T14:59:15.668Z,43.71
2022-08-19T15:01:46.288Z,43.17
2022-08-19T15:04:19.206Z,43.07
2022-08-19T15:06:49.678Z,43.90
2022-08-19T15:09:20.300Z,43.27
2022-08-19T15:11:51.448Z,43.88
2022-08-19T15:14:22.479Z,43.97
2022-08-19T15:16:53.079Z,43.91
2022-08-19T15:19:26.246Z,43.93
2022-08-19T15:21:56.405Z,43.86
2022-08-19T15:24:27.846Z,43.92
2022-08-19T15:26:58.580Z,43.90
2022-08-19T15:29:29.823Z,43.78
2022-08-19T15:32:01.135Z,43.84
2022-08-19T15:34:35.465Z,44.00
2022-08-19T15:37:07.669Z,43.74
2022-08-19T15:39:38.216Z,43.96
2022-08-19T15:42:09.754Z,43.74
2022-08-19T15:44:40.465Z,43.76
2022-08-19T15:47:10.983Z,43.52
2022-08-19T15:49:44.172Z,44.18
2022-08-19T15:52:17.860Z,43.74
2022-08-19T15:54:48.762Z,43.77
2022-08-19T15:57:37.915Z,43.69
2022-08-19T16:00:28.020Z,44.18
2022-08-19T16:03:15.658Z,44.23
2022-08-19T16:06:04.859Z,43.88
2022-08-19T16:08:48.928Z,44.51
2022-08-19T16:11:23.056Z,44.01
2022-08-19T16:13:55.666Z,43.83
2022-08-19T16:16:33.898Z,44.10
2022-08-19T16:19:10.503Z,44.06
2022-08-19T16:21:48.044Z,44.14
2022-08-19T16:24:22.792Z,44.76
2022-08-19T16:26:53.721Z,44.15
2022-08-19T16:29:34.164Z,44.27
2022-08-19T16:32:14.764Z,44.06
2022-08-19T16:34:45.701Z,44.65
2022-08-19T16:37:19.493Z,44.55
2022-08-19T16:39:51.344Z,44.66
2022-08-19T16:42:22.297Z,44.08
2022-08-19T16:44:53.694Z,44.23
2022-08-19T16:47:24.662Z,44.76
2022-08-19T16:49:55.669Z,44.62
2022-08-19T16:52:28.235Z,44.70
2022-08-19T16:54:59.200Z,44.16
2022-08-19T16:57:30.708Z,44.00
2022-08-19T17:00:06.430Z,44.16
2022-08-19T17:02:37.730Z,44.71
2022-08-19T17:05:10.752Z,44.81
2022-08-19T17:07:42.639Z,44.78
2022-08-19T17:10:13.272Z,44.08
2022-08-19T17:12:43.455Z,44.74
2022-08-19T17:15:15.289Z,44.27
2022-08-19T17:17:45.572Z,44.70
2022-08-19T17:20:16.034Z,44.50
2022-08-19T17:22:48.538Z,44.29
2022-08-19T17:25:20.049Z,44.77
2022-08-19T17:27:52.758Z,44.44
2022-08-19T17:30:25.595Z,44.16
2022-08-19T17:32:57.781Z,44.32
2022-08-19T17:35:28.492Z,44.88
2022-08-19T17:38:01.321Z,44.80
2022-08-19T17:40:32.167Z,44.89
2022-08-19T17:43:02.857Z,44.53
2022-08-19T17:45:34.332Z,44.42
2022-08-19T17:48:05.212Z,44.40
2022-08-19T17:50:37.306Z,44.91
2022-08-19T17:53:10.739Z,44.94
2022-08-19T17:55:44.986Z,45.04
2022-08-19T17:58:19.945Z,44.56
2022-08-19T18:00:54.359Z,44.49
2022-08-19T18:03:25.008Z,45.04
2022-08-19T18:05:56.171Z,44.83
2022-08-19T18:08:28.309Z,44.94
2022-08-19T18:10:59.143Z,44.27
2022-08-19T18:13:29.480Z,44.34
2022-08-19T18:16:00.343Z,44.88
2022-08-19T18:18:31.085Z,44.50
2022-08-19T18:21:02.065Z,44.56
2022-08-19T18:23:43.881Z,44.95
2022-08-19T18:26:16.315Z,44.49
2022-08-19T18:28:50.035Z,45.05
2022-08-19T18:31:21.720Z,45.17
2022-08-19T18:33:55.042Z,45.05
2022-08-19T18:36:52.098Z,44.47
2022-08-19T18:39:34.864Z,44.83
2022-08-19T18:42:25.931Z,44.76
2022-08-19T18:45:13.515Z,45.39
2022-08-19T18:48:00.751Z,45.10
2022-08-19T18:50:31.940Z,45.26
2022-08-19T18:53:02.845Z,45.03
2022-08-19T18:55:35.493Z,45.27
2022-08-19T18:58:06.808Z,44.68
2022-08-19T19:00:38.190Z,45.26
2022-08-19T19:03:09.084Z,45.29
2022-08-19T19:05:40.984Z,45.33
2022-08-19T19:08:13.360Z,44.73
2022-08-19T19:10:47.637Z,44.83
2022-08-19T19:13:26.796Z,45.38
2022-08-19T19:15:57.742Z,44.73
2022-08-19T19:18:28.506Z,45.31
2022-08-19T19:20:59.958Z,44.85
2022-08-19T19:23:34.089Z,45.33
2022-08-19T19:26:07.792Z,45.16
2022-08-19T19:28:40.105Z,45.21
2022-08-19T19:31:13.058Z,44.74
2022-08-19T19:33:44.498Z,44.79
2022-08-19T19:36:15.416Z,45.17
2022-08-19T19:38:48.879Z,44.96
2022-08-19T19:41:26.397Z,45.08
2022-08-19T19:44:31.001Z,45.23
2022-08-19T19:46:53.551Z,45.51
2022-08-19T19:49:24.648Z,45.51
2022-08-19T19:51:54.796Z,45.48
2022-08-19T19:54:27.123Z,45.04
2022-08-19T19:56:59.796Z,44.88
2022-08-19T19:59:30.629Z,45.49
2022-08-19T20:02:02.719Z,45.54
2022-08-19T20:04:34.437Z,45.51
2022-08-19T20:07:05.003Z,45.50
2022-08-19T20:09:58.312Z,45.45
2022-08-19T20:12:29.613Z,45.57
2022-08-19T20:15:00.959Z,45.26
2022-08-19T20:17:34.191Z,45.59
2022-08-19T20:20:05.665Z,45.11
2022-08-19T20:22:40.441Z,45.43
2022-08-19T20:25:14.995Z,45.10
2022-08-19T20:27:47.489Z,45.41
2022-08-19T20:30:25.409Z,45.11
2022-08-19T20:32:59.951Z,45.63
2022-08-19T20:35:33.445Z,45.69
2022-08-19T20:38:09.060Z,45.50
2022-08-19T20:40:41.610Z,45.14
2022-08-19T20:43:16.938Z,45.14
2022-08-19T20:45:47.616Z,45.57
2022-08-19T20:48:18.818Z,45.05
2022-08-19T20:50:49.688Z,45.59
2022-08-19T20:53:24.482Z,45.26
2022-08-19T20:55:55.519Z,45.77
2022-08-19T20:58:34.052Z,45.32
2022-08-19T21:01:06.977Z,45.67
2022-08-19T21:03:44.108Z,45.87
2022-08-19T21:06:16.618Z,45.93
2022-08-19T21:08:49.404Z,45.88
2022-08-19T21:11:23.338Z,45.56
2022-08-19T21:13:55.533Z,45.58
2022-08-19T21:16:26.029Z,45.75
2022-08-19T21:18:56.680Z,45.77
2022-08-19T21:21:27.658Z,45.89
2022-08-19T21:23:57.952Z,45.39
2022-08-19T21:26:29.333Z,45.37
2022-08-19T21:29:02.053Z,45.31
2022-08-19T21:31:33.173Z,45.67
2022-08-19T21:34:03.221Z,45.93
2022-08-19T21:36:34.503Z,45.55
2022-08-19T21:39:05.268Z,46.00
2022-08-19T21:41:38.782Z,45.24
2022-08-19T21:44:13.247Z,46.06
2022-08-19T21:46:44.242Z,45.50
2022-08-19T21:49:25.477Z,46.20
2022-08-19T21:51:56.536Z,46.06
2022-08-19T21:54:27.146Z,46.17
2022-08-19T21:57:10.676Z,46.07
2022-08-19T21:59:44.393Z,46.15
2022-08-19T22:02:20.717Z,46.23
2022-08-19T22:04:52.261Z,46.03
2022-08-19T22:07:24.798Z,46.34
2022-08-19T22:09:55.472Z,45.96
2022-08-19T22:12:29.479Z,46.42
2022-08-19T22:15:02.880Z,45.67
2022-08-19T22:17:34.408Z,46.43
2022-08-19T22:20:06.960Z,46.22
2022-08-19T22:22:38.459Z,46.39
2022-08-19T22:25:31.543Z,45.83
2022-08-19T22:28:03.810Z,45.92
2022-08-19T22:30:38.658Z,46.50
2022-08-19T22:33:18.157Z,46.02
2022-08-19T22:35:50.624Z,46.15
2022-08-19T22:38:21.365Z,45.87
2022-08-19T22:40:54.848Z,46.44
2022-08-19T22:43:30.590Z,46.40
2022-08-19T22:46:03.932Z,46.44
2022-08-19T22:48:35.294Z,45.83
2022-08-19T22:51:22.871Z,46.01
2022-08-19T22:53:57.183Z,46.41
2022-08-19T22:56:28.634Z,45.92
2022-08-19T22:58:59.295Z,46.03
2022-08-19T23:01:32.849Z,45.93
2022-08-19T23:04:06.153Z,46.34
2022-08-19T23:06:40.247Z,46.47
2022-08-19T23:09:17.019Z,46.44
2022-08-19T23:11:48.550Z,46.04
2022-08-19T23:14:20.245Z,46.48
2022-08-19T23:16:55.946Z,46.09
2022-08-19T23:19:30.260Z,46.69
2022-08-19T23:22:02.581Z,46.66
2022-08-19T23:24:33.312Z,46.75
2022-08-19T23:27:20.585Z,46.58
2022-08-19T23:30:07.656Z,46.87
2022-08-19T23:32:41.726Z,46.07
2022-08-19T23:35:12.357Z,46.79
2022-08-19T23:37:42.499Z,46.81
2022-08-19T23:40:14.158Z,46.42
2022-08-19T23:42:47.580Z,46.80
2022-08-19T23:45:23.724Z,46.18
2022-08-19T23:47:56.972Z,46.29
2022-08-19T23:50:30.422Z,46.76
2022-08-19T23:53:04.002Z,46.63
2022-08-19T23:55:40.487Z,46.61
2022-08-19T23:58:11.787Z,46.53
